Time;durP1;ratioP1;P1;durP2;ratioP2;P2;SDS_P1;SDS_P2;PMS_P1;PMS_P2;Temp;Humidity;BMP_temperature;BMP_pressure;BME280_temperature;BME280_humidity;BME280_pressure;Samples;Min_cycle;Max_cycle;Signal;HPM_P1;HPM_P2
2020/12/27 00:02:08;;;;;;;14.50;11.73;;;;;;;;;;5048779;28;20040;-60
2020/12/27 00:04:34;;;;;;;15.15;11.68;;;;;;;;;;5061066;28;20029;-59
2020/12/27 00:07:04;;;;;;;16.40;12.43;;;;;;;;;;5056638;28;20044;-59
2020/12/27 00:09:30;;;;;;;15.45;11.95;;;;;;;;;;5057290;28;20519;-59
2020/12/27 00:11:56;;;;;;;15.57;11.85;;;;;;;;;;5033663;28;20075;-59
2020/12/27 00:14:22;;;;;;;16.13;11.38;;;;;;;;;;5047747;28;20120;-59
2020/12/27 00:16:48;;;;;;;13.65;11.23;;;;;;;;;;5051920;28;20124;-60
2020/12/27 00:19:14;;;;;;;13.27;11.48;;;;;;;;;;5053593;28;20029;-60
2020/12/27 00:21:40;;;;;;;14.02;11.52;;;;;;;;;;5049836;28;20401;-60
2020/12/27 00:24:06;;;;;;;15.13;12.18;;;;;;;;;;5049889;28;20040;-60
2020/12/27 00:26:32;;;;;;;16.73;12.38;;;;;;;;;;5052163;28;20086;-59
2020/12/27 00:28:58;;;;;;;14.32;11.88;;;;;;;;;;5049075;28;20040;-59
2020/12/27 00:31:24;;;;;;;15.60;11.93;;;;;;;;;;5059272;28;20041;-59
2020/12/27 00:33:50;;;;;;;16.67;12.20;;;;;;;;;;5061354;28;20119;-59
2020/12/27 00:36:20;;;;;;;14.77;13.20;;;;;;;;;;5058236;28;20040;-59
2020/12/27 00:38:46;;;;;;;18.40;13.45;;;;;;;;;;5058700;28;20067;-59
2020/12/27 00:41:12;;;;;;;18.88;12.65;;;;;;;;;;5059998;28;20036;-59
2020/12/27 00:43:38;;;;;;;16.60;13.30;;;;;;;;;;5056951;28;20119;-59
2020/12/27 00:46:04;;;;;;;15.68;13.38;;;;;;;;;;5056912;28;20064;-60
2020/12/27 00:48:30;;;;;;;18.17;13.13;;;;;;;;;;5057553;28;20449;-61
2020/12/27 00:50:56;;;;;;;17.77;12.93;;;;;;;;;;5060711;28;20037;-59
2020/12/27 00:53:22;;;;;;;13.52;12.10;;;;;;;;;;5048267;28;20068;-60
2020/12/27 00:55:48;;;;;;;16.48;12.48;;;;;;;;;;5059395;28;20041;-60
2020/12/27 00:58:14;;;;;;;13.57;11.70;;;;;;;;;;5058115;28;20382;-61
2020/12/27 01:00:43;;;;;;;12.98;11.07;;;;;;;;;;5056610;28;20534;-62
2020/12/27 01:03:09;;;;;;;14.38;11.02;;;;;;;;;;5042444;28;20068;-59
2020/12/27 01:05:35;;;;;;;14.45;11.60;;;;;;;;;;5041630;28;20028;-59
2020/12/27 01:08:01;;;;;;;13.00;11.38;;;;;;;;;;5057102;28;20090;-59
2020/12/27 01:10:27;;;;;;;13.77;11.23;;;;;;;;;;5055022;28;20208;-59
2020/12/27 01:12:55;;;;;;;12.93;11.48;;;;;;;;;;5059834;28;20046;-59
2020/12/27 01:15:21;;;;;;;11.10;9.70;;;;;;;;;;5060941;28;20032;-59
2020/12/27 01:17:47;;;;;;;10.80;9.30;;;;;;;;;;5054172;28;20051;-59
2020/12/27 01:20:13;;;;;;;11.50;9.55;;;;;;;;;;5055846;28;20032;-59
2020/12/27 01:22:39;;;;;;;12.20;9.00;;;;;;;;;;5057945;28;20090;-59
2020/12/27 01:25:05;;;;;;;10.63;9.52;;;;;;;;;;5055559;28;20453;-59
2020/12/27 01:27:31;;;;;;;11.32;9.18;;;;;;;;;;5053748;28;20055;-59
2020/12/27 01:29:57;;;;;;;9.07;8.18;;;;;;;;;;5041828;28;20040;-59
2020/12/27 01:32:23;;;;;;;8.57;7.78;;;;;;;;;;5057023;28;20051;-59
2020/12/27 01:34:49;;;;;;;9.02;7.72;;;;;;;;;;5047708;28;20041;-59
2020/12/27 01:37:17;;;;;;;9.60;8.48;;;;;;;;;;5055878;28;20059;-59
2020/12/27 01:39:43;;;;;;;13.57;8.07;;;;;;;;;;5054154;28;20037;-59
2020/12/27 01:42:09;;;;;;;7.50;6.50;;;;;;;;;;5054783;28;20446;-59
2020/12/27 01:44:35;;;;;;;8.02;7.22;;;;;;;;;;5056526;28;20044;-59
2020/12/27 01:47:11;;;;;;;7.07;6.20;;;;;;;;;;5055445;28;20163;-59
2020/12/27 01:49:37;;;;;;;7.68;6.88;;;;;;;;;;5058545;28;20408;-58
2020/12/27 01:52:03;;;;;;;7.28;6.60;;;;;;;;;;5059577;28;20450;-59
2020/12/27 01:54:29;;;;;;;6.35;5.75;;;;;;;;;;5056256;28;20036;-60
2020/12/27 01:56:57;;;;;;;7.10;6.40;;;;;;;;;;5057692;28;20036;-59
2020/12/27 01:59:31;;;;;;;5.72;5.22;;;;;;;;;;5057122;28;20028;-59
2020/12/27 02:01:57;;;;;;;7.25;5.13;;;;;;;;;;5053303;28;20067;-59
2020/12/27 02:04:24;;;;;;;8.25;5.03;;;;;;;;;;5042467;28;20116;-59
2020/12/27 02:06:50;;;;;;;6.22;4.65;;;;;;;;;;5056459;28;20043;-59
2020/12/27 02:09:17;;;;;;;5.28;4.75;;;;;;;;;;5056764;28;20439;-59
2020/12/27 02:11:43;;;;;;;5.22;4.72;;;;;;;;;;5056998;28;20033;-59
2020/12/27 02:14:09;;;;;;;5.57;5.07;;;;;;;;;;5056475;28;20447;-59
2020/12/27 02:16:35;;;;;;;5.57;4.97;;;;;;;;;;5058941;28;20945;-59
2020/12/27 02:19:02;;;;;;;5.13;4.63;;;;;;;;;;5059982;28;20040;-59
2020/12/27 02:21:28;;;;;;;4.88;4.40;;;;;;;;;;5056321;28;20578;-59
2020/12/27 02:23:58;;;;;;;4.85;4.40;;;;;;;;;;5043209;28;20480;-59
2020/12/27 02:26:25;;;;;;;8.77;4.70;;;;;;;;;;5056444;28;20037;-59
2020/12/27 02:28:51;;;;;;;4.78;4.18;;;;;;;;;;5052275;28;20126;-59
2020/12/27 02:31:17;;;;;;;5.22;4.30;;;;;;;;;;5045762;28;20983;-59
2020/12/27 02:33:43;;;;;;;4.53;4.00;;;;;;;;;;5056392;28;20085;-59
2020/12/27 02:36:12;;;;;;;4.22;3.83;;;;;;;;;;5056128;28;20040;-60
2020/12/27 02:38:38;;;;;;;5.13;4.10;;;;;;;;;;5056088;28;20028;-59
2020/12/27 02:41:11;;;;;;;4.75;3.35;;;;;;;;;;5042734;28;20112;-59
2020/12/27 02:43:37;;;;;;;4.22;3.83;;;;;;;;;;5058265;28;20028;-59
2020/12/27 02:46:04;;;;;;;4.47;3.65;;;;;;;;;;5055036;28;21071;-59
2020/12/27 02:48:30;;;;;;;3.30;3.00;;;;;;;;;;5058562;28;20025;-59
2020/12/27 02:50:56;;;;;;;3.58;2.90;;;;;;;;;;5055477;28;20396;-59
2020/12/27 02:53:22;;;;;;;3.47;3.17;;;;;;;;;;5057699;28;20064;-59
2020/12/27 02:55:48;;;;;;;3.47;3.17;;;;;;;;;;5055390;28;20067;-59
2020/12/27 02:58:14;;;;;;;5.13;3.58;;;;;;;;;;5059297;28;20036;-59
2020/12/27 03:00:40;;;;;;;4.47;3.08;;;;;;;;;;5054053;28;20580;-59
2020/12/27 03:03:09;;;;;;;3.38;2.72;;;;;;;;;;5055521;28;20036;-59
2020/12/27 03:05:35;;;;;;;4.20;2.65;;;;;;;;;;5058165;28;20043;-59
2020/12/27 03:08:01;;;;;;;3.60;3.13;;;;;;;;;;5058266;28;20040;-59
2020/12/27 03:10:27;;;;;;;3.05;2.75;;;;;;;;;;5060050;28;20500;-59
2020/12/27 03:12:53;;;;;;;2.72;2.38;;;;;;;;;;5058617;28;20037;-59
2020/12/27 03:15:19;;;;;;;8.00;2.85;;;;;;;;;;5058057;28;20044;-59
2020/12/27 03:17:45;;;;;;;2.90;2.50;;;;;;;;;;5055656;28;20041;-59
2020/12/27 03:20:16;;;;;;;2.55;2.30;;;;;;;;;;5047063;28;20048;-59
2020/12/27 03:22:42;;;;;;;2.65;2.45;;;;;;;;;;5055071;28;20032;-59
2020/12/27 03:25:08;;;;;;;3.35;2.42;;;;;;;;;;5056028;28;20096;-58
2020/12/27 03:27:34;;;;;;;4.55;2.10;;;;;;;;;;5051583;28;20066;-59
2020/12/27 03:30:00;;;;;;;2.28;2.08;;;;;;;;;;5053512;28;20563;-59
2020/12/27 03:32:26;;;;;;;2.20;2.00;;;;;;;;;;5047905;28;20043;-59
2020/12/27 03:34:52;;;;;;;4.45;2.42;;;;;;;;;;5058975;28;20037;-59
2020/12/27 03:37:18;;;;;;;1.85;1.73;;;;;;;;;;5059064;28;20388;-59
2020/12/27 03:39:44;;;;;;;2.47;2.28;;;;;;;;;;5057133;28;20040;-59
2020/12/27 03:42:10;;;;;;;2.13;1.85;;;;;;;;;;5058166;28;20032;-59
2020/12/27 03:44:36;;;;;;;2.20;2.00;;;;;;;;;;5056140;28;20050;-59
2020/12/27 03:47:02;;;;;;;3.95;1.67;;;;;;;;;;5056540;28;20412;-59
2020/12/27 03:49:28;;;;;;;2.88;2.20;;;;;;;;;;5051976;28;20032;-59
2020/12/27 03:51:54;;;;;;;3.15;1.88;;;;;;;;;;5050989;28;20033;-59
2020/12/27 03:54:20;;;;;;;2.60;2.40;;;;;;;;;;5057541;28;20044;-59
2020/12/27 03:56:46;;;;;;;2.40;2.20;;;;;;;;;;5051943;28;20049;-59
2020/12/27 03:59:12;;;;;;;6.28;2.28;;;;;;;;;;5056379;28;20052;-59
2020/12/27 04:01:37;;;;;;;2.30;2.10;;;;;;;;;;5056409;28;20036;-59
2020/12/27 04:04:03;;;;;;;2.60;2.40;;;;;;;;;;5059837;28;20051;-59
2020/12/27 04:06:29;;;;;;;5.82;2.25;;;;;;;;;;5059201;28;20033;-59
2020/12/27 04:08:55;;;;;;;2.67;2.33;;;;;;;;;;5059059;28;20032;-60
2020/12/27 04:11:21;;;;;;;4.45;2.15;;;;;;;;;;5057100;28;20685;-59
2020/12/27 04:13:47;;;;;;;2.50;2.30;;;;;;;;;;5056173;28;20037;-59
2020/12/27 04:16:13;;;;;;;3.22;2.22;;;9.80;62.70;;;;;;5059174;28;20041;-59
2020/12/27 04:18:39;;;;;;;2.75;2.03;;;9.50;58.40;;;;;;5056376;28;20028;-59
2020/12/27 04:21:04;;;;;;;2.63;2.28;;;9.50;58.30;;;;;;5046276;28;20120;-59
2020/12/27 04:23:30;;;;;;;2.47;2.10;;;9.40;58.20;;;;;;5060793;28;20079;-59
2020/12/27 04:25:55;;;;;;;2.70;2.10;;;9.40;58.30;;;;;;5056657;28;20090;-59
2020/12/27 04:28:21;;;;;;;2.08;1.90;;;;;;;;;;5058635;28;20048;-59
2020/12/27 04:30:47;;;;;;;3.53;2.00;;;;;;;;;;5057835;28;20037;-60
2020/12/27 04:33:13;;;;;;;2.97;2.13;;;;;;;;;;5058214;28;20550;-59
2020/12/27 04:35:39;;;;;;;2.30;1.88;;;;;;;;;;5059418;28;20048;-59
2020/12/27 04:38:05;;;;;;;2.40;1.85;;;9.40;58.20;;;;;;5061190;28;20536;-59
2020/12/27 04:40:30;;;;;;;2.17;1.80;;;9.40;57.70;;;;;;5064365;28;20039;-58
2020/12/27 04:42:57;;;;;;;2.05;1.60;;;;;;;;;;5060698;28;20068;-59
2020/12/27 04:45:23;;;;;;;2.97;1.85;;;;;;;;;;5062289;28;20051;-59
2020/12/27 04:47:49;;;;;;;3.10;1.90;;;;;;;;;;5061174;28;20045;-59
2020/12/27 04:50:16;;;;;;;2.85;1.63;;;;;;;;;;5061671;28;20056;-59
2020/12/27 04:52:41;;;;;;;2.35;1.40;;;;;;;;;;5060552;28;20493;-59
2020/12/27 04:55:08;;;;;;;3.75;1.80;;;;;;;;;;5060536;28;20085;-59
2020/12/27 04:57:35;;;;;;;1.77;1.67;;;;;;;;;;5057089;28;20499;-58
2020/12/27 05:00:06;;;;;;;1.98;1.77;;;9.40;58.10;;;;;;5058440;28;20044;-59
2020/12/27 05:02:32;;;;;;;2.97;1.35;;;9.30;57.80;;;;;;5052948;28;20040;-59
2020/12/27 05:05:01;;;;;;;2.42;1.60;;;9.30;57.70;;;;;;5049071;28;20033;-59
2020/12/27 05:07:27;;;;;;;3.72;1.83;;;;;;;;;;5058370;28;20400;-59
2020/12/27 05:09:53;;;;;;;1.60;1.50;;;;;;;;;;5058530;28;20047;-59
2020/12/27 05:12:18;;;;;;;1.60;1.50;;;9.30;57.80;;;;;;5062833;28;20040;-59
2020/12/27 05:14:47;;;;;;;1.88;1.40;;;9.40;57.60;;;;;;5058983;28;20056;-59
2020/12/27 05:17:14;;;;;;;2.35;1.55;;;9.40;57.70;;;;;;5052003;28;20055;-59
2020/12/27 05:19:41;;;;;;;1.30;1.15;;;9.40;57.70;;;;;;5061117;28;20421;-59
2020/12/27 05:22:11;;;;;;;2.45;1.30;;;9.40;58.30;;;;;;5057255;28;20816;-59
2020/12/27 05:24:38;;;;;;;1.90;1.70;;;9.40;57.60;;;;;;5061227;28;20040;-59
2020/12/27 05:27:06;;;;;;;2.78;1.70;;;9.30;57.70;;;;;;5056918;28;20059;-59
2020/12/27 05:29:33;;;;;;;1.60;1.50;;;9.30;57.80;;;;;;5058086;28;20037;-59
2020/12/27 05:32:00;;;;;;;2.25;1.80;;;9.20;58.00;;;;;;5061180;28;20366;-59
2020/12/27 05:34:26;;;;;;;1.58;1.40;;;;;;;;;;5058906;28;20048;-59
2020/12/27 05:36:52;;;;;;;2.15;1.80;;;;;;;;;;5057686;28;20024;-59
2020/12/27 05:39:18;;;;;;;2.13;1.85;;;9.20;58.20;;;;;;5056731;28;20106;-59
2020/12/27 05:41:44;;;;;;;2.58;1.63;;;9.10;58.80;;;;;;5034453;28;20043;-59
2020/12/27 05:44:09;;;;;;;2.55;1.67;;;9.00;58.80;;;;;;5055188;28;20119;-59
2020/12/27 05:46:35;;;;;;;3.53;1.85;;;9.00;59.00;;;;;;5054646;28;20032;-59
2020/12/27 05:49:01;;;;;;;1.90;1.80;;;9.00;59.10;;;;;;5040971;28;20044;-59
2020/12/27 05:51:28;;;;;;;2.13;1.88;;;9.00;59.20;;;;;;5060801;28;20033;-59
2020/12/27 05:53:57;;;;;;;2.20;1.65;;;9.00;59.30;;;;;;5056999;28;20033;-59
2020/12/27 05:56:27;;;;;;;2.22;1.88;;;;;;;;;;5054846;28;20033;-59
2020/12/27 05:58:55;;;;;;;3.92;1.83;;;;;;;;;;5053432;28;20147;-59
2020/12/27 06:01:22;;;;;;;2.33;2.08;;;;;;;;;;5055525;28;20043;-59
2020/12/27 06:03:58;;;;;;;2.15;1.98;;;;;;;;;;5057747;28;20033;-59
2020/12/27 06:06:27;;;;;;;2.22;1.77;;;;;;;;;;5054609;28;20036;-59
2020/12/27 06:09:07;;;;;;;4.60;2.13;;;;;;;;;;5059502;28;20029;-59
2020/12/27 06:11:35;;;;;;;2.22;1.90;;;;;;;;;;5058865;28;20035;-59
2020/12/27 06:14:01;;;;;;;2.45;1.83;;;;;;;;;;5059924;28;20055;-59
2020/12/27 06:16:38;;;;;;;1.92;1.67;;;;;;;;;;5048933;28;20131;-59
2020/12/27 06:19:11;;;;;;;2.20;2.00;;;;;;;;;;5050053;28;20102;-59
2020/12/27 06:21:41;;;;;;;1.95;1.77;;;;;;;;;;5055438;28;20439;-59
2020/12/27 06:24:14;;;;;;;3.90;1.65;;;;;;;;;;5036860;28;20112;-59
2020/12/27 06:26:41;;;;;;;2.10;1.90;;;;;;;;;;5050770;28;20510;-59
2020/12/27 06:29:07;;;;;;;1.90;1.80;;;;;;;;;;5050494;28;21340;-59
2020/12/27 06:31:34;;;;;;;2.15;1.95;;;;;;;;;;5057342;28;20025;-59
2020/12/27 06:34:00;;;;;;;1.52;1.42;;;;;;;;;;5051333;28;20438;-59
2020/12/27 06:36:33;;;;;;;2.28;1.77;;;;;;;;;;5050600;28;20048;-59
2020/12/27 06:39:00;;;;;;;3.13;1.50;;;;;;;;;;5047407;28;20120;-59
2020/12/27 06:41:26;;;;;;;1.50;1.40;;;;;;;;;;5050703;28;20029;-59
2020/12/27 06:43:53;;;;;;;1.85;1.67;;;;;;;;;;5055750;28;20044;-59
2020/12/27 06:46:26;;;;;;;1.63;1.52;;;;;;;;;;5057223;28;20025;-59
2020/12/27 06:49:22;;;;;;;1.60;1.50;;;;;;;;;;5056402;28;20056;-59
2020/12/27 06:51:48;;;;;;;2.17;1.33;;;;;;;;;;5023593;28;20045;-59
2020/12/27 06:54:13;;;;;;;2.80;1.83;;;9.00;59.50;;;;;;5059211;28;20942;-59
2020/12/27 06:56:41;;;;;;;1.52;1.42;;;9.20;60.60;;;;;;5041494;28;20030;-59
2020/12/27 06:59:07;;;;;;;1.80;1.52;;;9.20;60.20;;;;;;5056080;28;20029;-59
2020/12/27 07:01:33;;;;;;;1.33;1.20;;;9.20;60.20;;;;;;5058030;28;20090;-59
2020/12/27 07:04:13;;;;;;;3.80;1.70;;;;;;;;;;5047502;28;20075;-60
2020/12/27 07:06:39;;;;;;;1.35;1.25;;;;;;;;;;5043330;28;20193;-59
2020/12/27 07:09:05;;;;;;;1.65;1.50;;;;;;;;;;5057042;28;20877;-59
2020/12/27 07:11:32;;;;;;;1.35;1.27;;;;;;;;;;5054213;28;20033;-59
2020/12/27 07:13:59;;;;;;;1.30;1.20;;;;;;;;;;5059705;28;20025;-58
2020/12/27 07:16:42;;;;;;;1.35;1.25;;;;;;;;;;5055400;28;20036;-59
2020/12/27 07:19:08;;;;;;;1.55;1.40;;;;;;;;;;5054762;28;20036;-59
2020/12/27 07:21:36;;;;;;;1.17;1.08;;;;;;;;;;5053268;28;20063;-58
2020/12/27 07:24:06;;;;;;;2.50;1.30;;;;;;;;;;5058620;28;20039;-59
2020/12/27 07:26:44;;;;;;;1.38;1.27;;;;;;;;;;5057665;28;20043;-59
2020/12/27 07:29:13;;;;;;;1.27;1.17;;;;;;;;;;5057476;28;20059;-59
2020/12/27 07:31:39;;;;;;;2.15;1.20;;;;;;;;;;5058353;28;20033;-59
2020/12/27 07:34:07;;;;;;;1.58;1.38;;;9.20;60.00;;;;;;5046775;28;20449;-58
2020/12/27 07:36:34;;;;;;;1.63;1.10;;;;;;;;;;5058141;28;20439;-59
2020/12/27 07:39:02;;;;;;;1.13;1.10;;;;;;;;;;5060016;28;20036;-59
2020/12/27 07:41:32;;;;;;;1.25;1.15;;;;;;;;;;5041912;28;20561;-59
2020/12/27 07:43:58;;;;;;;1.30;1.20;;;;;;;;;;5061200;28;20041;-59
2020/12/27 07:46:26;;;;;;;2.45;1.10;;;;;;;;;;5058881;28;20124;-59
2020/12/27 07:48:52;;;;;;;1.00;1.00;;;9.40;59.60;;;;;;5058240;28;20079;-59
2020/12/27 07:51:22;;;;;;;1.08;1.00;;;;;;;;;;5062115;28;20039;-59
2020/12/27 07:53:52;;;;;;;1.30;1.20;;;9.60;59.20;;;;;;5061113;28;20033;-59
2020/12/27 07:56:23;;;;;;;1.65;0.80;;;9.60;59.00;;;;;;5062934;28;20033;-59
2020/12/27 07:58:52;;;;;;;1.20;1.10;;;9.70;58.90;;;;;;5060284;28;20808;-58
2020/12/27 08:01:23;;;;;;;0.98;0.95;;;9.70;58.80;;;;;;5061524;28;20443;-59
2020/12/27 08:03:59;;;;;;;2.28;1.10;;;;;;;;;;5062372;28;20543;-59
2020/12/27 08:06:27;;;;;;;1.20;0.90;;;;;;;;;;5061709;28;20373;-59
2020/12/27 08:09:00;;;;;;;1.48;0.88;;;;;;;;;;5064727;28;20036;-59
2020/12/27 08:11:26;;;;;;;1.00;1.00;;;;;;;;;;5055399;28;20094;-59
2020/12/27 08:13:57;;;;;;;1.83;1.00;;;;;;;;;;5053887;28;20115;-59
2020/12/27 08:16:23;;;;;;;1.85;0.82;;;;;;;;;;5056633;28;20142;-59
2020/12/27 08:19:00;;;;;;;0.70;0.70;;;;;;;;;;5055782;28;20068;-59
2020/12/27 08:21:26;;;;;;;0.90;0.90;;;;;;;;;;5064340;28;20752;-59
2020/12/27 08:23:59;;;;;;;0.90;0.90;;;;;;;;;;5055966;28;20032;-60
2020/12/27 08:26:26;;;;;;;1.63;1.10;;;;;;;;;;5054849;28;20551;-59
2020/12/27 08:28:51;;;;;;;1.00;1.00;;;;;;;;;;5053220;28;20037;-59
2020/12/27 08:31:24;;;;;;;0.77;0.77;;;;;;;;;;5059568;28;20307;-59
2020/12/27 08:33:50;;;;;;;0.80;0.80;;;;;;;;;;5061386;28;20025;-59
2020/12/27 08:36:21;;;;;;;1.27;1.10;;;;;;;;;;5054900;28;20097;-59
2020/12/27 08:38:58;;;;;;;1.13;1.02;;;;;;;;;;5061388;28;20048;-59
2020/12/27 08:41:27;;;;;;;1.70;1.20;;;;;;;;;;5033831;28;20021;-59
2020/12/27 08:44:11;;;;;;;2.05;1.10;;;;;;;;;;5057298;28;20659;-59
2020/12/27 08:46:38;;;;;;;1.10;1.05;;;;;;;;;;5044737;28;20163;-59
2020/12/27 08:49:09;;;;;;;0.90;0.90;;;;;;;;;;5054261;28;20118;-59
2020/12/27 08:51:39;;;;;;;1.35;1.25;;;;;;;;;;5061009;28;20041;-59
2020/12/27 08:54:07;;;;;;;0.95;0.90;;;;;;;;;;5063613;28;20043;-59
2020/12/27 08:56:34;;;;;;;1.33;1.10;;;;;;;;;;5057567;28;20473;-59
2020/12/27 08:59:00;;;;;;;1.00;1.00;;;;;;;;;;5049357;28;20052;-59
2020/12/27 09:01:26;;;;;;;2.13;1.20;;;;;;;;;;5043477;28;20186;-60
2020/12/27 09:03:52;;;;;;;3.95;1.27;;;;;;;;;;5059202;28;20033;-63
2020/12/27 09:06:18;;;;;;;0.70;0.70;;;;;;;;;;5056325;28;20025;-59
2020/12/27 09:08:44;;;;;;;1.50;1.30;;;;;;;;;;5054797;28;20416;-60
2020/12/27 09:11:10;;;;;;;1.27;1.17;;;;;;;;;;5054767;28;20119;-60
2020/12/27 09:13:37;;;;;;;1.02;0.93;;;;;;;;;;5058775;28;20123;-60
2020/12/27 09:16:03;;;;;;;1.20;1.20;;;;;;;;;;5055426;28;20130;-59
2020/12/27 09:18:30;;;;;;;2.13;1.38;;;;;;;;;;5057673;28;20040;-59
2020/12/27 09:21:06;;;;;;;2.33;1.27;;;;;;;;;;5058990;28;20158;-60
2020/12/27 09:23:33;;;;;;;1.10;1.00;;;;;;;;;;5054781;28;20496;-60
2020/12/27 09:26:22;;;;;;;2.85;1.10;;;;;;;;;;5053736;28;20035;-59
2020/12/27 09:28:48;;;;;;;1.35;1.02;;;;;;;;;;5056361;28;20485;-60
2020/12/27 09:31:14;;;;;;;1.50;1.17;;;;;;;;;;5059477;28;20043;-59
2020/12/27 09:33:49;;;;;;;1.13;1.02;;;;;;;;;;5053479;28;20691;-59
2020/12/27 09:36:16;;;;;;;1.10;0.90;;;;;;;;;;5056401;28;20040;-59
2020/12/27 09:38:43;;;;;;;3.25;1.20;;;;;;;;;;5060800;28;20035;-59
2020/12/27 09:41:10;;;;;;;1.02;1.00;;;;;;;;;;5042130;28;20024;-60
2020/12/27 09:43:56;;;;;;;3.70;0.90;;;;;;;;;;5053676;28;20053;-59
2020/12/27 09:46:40;;;;;;;3.72;1.10;;;;;;;;;;5047341;28;20027;-59
2020/12/27 09:49:26;;;;;;;0.73;0.73;;;;;;;;;;5028955;28;20511;-59
2020/12/27 09:52:01;;;;;;;0.93;0.90;;;;;;;;;;5052533;28;20374;-60
2020/12/27 09:54:27;;;;;;;1.20;1.10;;;;;;;;;;5043144;28;20068;-59
2020/12/27 09:56:53;;;;;;;0.93;0.80;;;;;;;;;;5047291;28;20060;-59
2020/12/27 09:59:19;;;;;;;1.33;1.10;;;;;;;;;;5051936;28;20653;-59
2020/12/27 10:01:45;;;;;;;1.33;0.90;;;;;;;;;;5040440;28;20041;-59
2020/12/27 10:04:11;;;;;;;1.10;1.05;;;;;;;;;;5039479;28;20487;-59
2020/12/27 10:06:37;;;;;;;2.80;1.25;;;;;;;;;;5031955;28;20037;-59
2020/12/27 10:09:03;;;;;;;1.00;0.80;;;;;;;;;;5039953;28;20041;-59
2020/12/27 10:11:29;;;;;;;1.10;1.00;;;;;;;;;;5054539;28;20607;-59
2020/12/27 10:13:55;;;;;;;1.17;0.75;;;;;;;;;;5047331;28;20116;-59
2020/12/27 10:16:21;;;;;;;0.88;0.88;;;;;;;;;;5051444;28;20108;-59
2020/12/27 10:18:47;;;;;;;2.22;0.75;;;9.70;58.80;;;;;;5048962;28;20036;-60
2020/12/27 10:21:13;;;;;;;0.93;0.90;;;;;;;;;;5036829;28;20029;-59
2020/12/27 10:23:39;;;;;;;4.00;1.00;;;;;;;;;;5045307;28;20075;-59
2020/12/27 10:26:06;;;;;;;0.80;0.80;;;;;;;;;;5045760;28;20048;-60
2020/12/27 10:28:33;;;;;;;1.65;0.80;;;;;;;;;;5044287;28;20126;-60
2020/12/27 10:31:00;;;;;;;0.80;0.80;;;;;;;;;;5055364;28;24325;-60
2020/12/27 10:33:26;;;;;;;2.47;1.00;;;;;;;;;;5038296;28;20493;-59
2020/12/27 10:35:52;;;;;;;3.90;0.80;;;;;;;;;;5047566;28;20555;-59
2020/12/27 10:38:18;;;;;;;2.85;0.82;;;;;;;;;;5058933;28;20028;-59
2020/12/27 10:40:44;;;;;;;0.90;0.90;;;;;;;;;;5048479;28;20367;-59
2020/12/27 10:43:10;;;;;;;0.80;0.70;;;;;;;;;;5026476;28;20044;-59
2020/12/27 10:45:36;;;;;;;0.80;0.80;;;;;;;;;;5056856;28;20163;-59
2020/12/27 10:48:02;;;;;;;0.90;0.90;;;;;;;;;;5057476;28;20056;-59
2020/12/27 10:50:28;;;;;;;2.75;0.98;;;;;;;;;;5052259;28;20071;-59
2020/12/27 10:52:53;;;;;;;2.08;1.20;;;;;;;;;;5037599;28;20498;-59
2020/12/27 10:55:19;;;;;;;1.40;1.10;;;;;;;;;;5034551;28;20041;-59
2020/12/27 10:57:45;;;;;;;2.45;1.27;;;;;;;;;;5045650;28;20050;-59
2020/12/27 11:00:11;;;;;;;3.67;1.25;;;;;;;;;;5036762;28;20401;-59
2020/12/27 11:02:37;;;;;;;1.38;1.02;;;;;;;;;;5032747;28;20413;-59
2020/12/27 11:05:03;;;;;;;1.35;0.98;;;;;;;;;;5034486;28;20528;-59
2020/12/27 11:07:29;;;;;;;1.45;1.23;;;;;;;;;;5029801;28;20045;-59
2020/12/27 11:09:55;;;;;;;1.67;1.30;;;;;;;;;;5033182;28;20059;-59
2020/12/27 11:12:21;;;;;;;1.67;1.20;;;;;;;;;;5035026;28;20048;-59
2020/12/27 11:14:47;;;;;;;1.30;1.20;;;;;;;;;;5023466;28;20116;-59
2020/12/27 11:17:15;;;;;;;1.00;0.88;;;;;;;;;;5055726;28;20769;-59
2020/12/27 11:19:41;;;;;;;2.28;0.98;;;;;;;;;;5032179;28;20064;-59
2020/12/27 11:22:07;;;;;;;1.77;1.00;;;;;;;;;;5038855;28;20484;-59
2020/12/27 11:24:32;;;;;;;2.75;1.60;;;10.10;58.40;;;;;;5050668;28;20040;-59
2020/12/27 11:26:58;;;;;;;1.30;1.20;;;9.80;59.90;;;;;;5047817;28;20797;-59
2020/12/27 11:29:24;;;;;;;2.67;1.40;;;;;;;;;;5049443;28;20090;-59
2020/12/27 11:31:54;;;;;;;1.00;1.00;;;;;;;;;;5047167;28;20376;-59
2020/12/27 11:34:20;;;;;;;1.48;1.00;;;;;;;;;;5035813;28;20535;-59
2020/12/27 11:36:49;;;;;;;1.98;1.30;;;;;;;;;;5048068;28;20056;-59
2020/12/27 11:39:15;;;;;;;3.38;1.20;;;;;;;;;;5048415;28;20032;-59
2020/12/27 11:41:41;;;;;;;1.95;1.45;;;;;;;;;;5053746;28;20054;-59
2020/12/27 11:44:07;;;;;;;1.30;1.20;;;;;;;;;;5057665;28;20645;-59
2020/12/27 11:46:33;;;;;;;1.88;1.75;;;;;;;;;;5055086;28;20029;-59
2020/12/27 11:48:59;;;;;;;3.05;1.40;;;;;;;;;;5052920;28;20036;-59
2020/12/27 11:51:25;;;;;;;2.28;1.50;;;;;;;;;;5054472;28;20075;-59
2020/12/27 11:53:52;;;;;;;4.45;1.25;;;;;;;;;;5057638;28;20572;-59
2020/12/27 11:56:19;;;;;;;1.60;1.50;;;;;;;;;;5052852;28;20043;-59
2020/12/27 11:58:45;;;;;;;3.00;1.58;;;;;;;;;;5047723;28;20043;-59
2020/12/27 12:01:12;;;;;;;2.38;1.55;;;;;;;;;;5053325;28;20488;-59
2020/12/27 12:03:38;;;;;;;5.35;1.90;;;;;;;;;;5051162;28;20033;-59
2020/12/27 12:06:04;;;;;;;1.60;1.50;;;;;;;;;;5049290;28;22085;-59
2020/12/27 12:08:30;;;;;;;1.77;1.42;;;;;;;;;;5041920;28;20032;-59
2020/12/27 12:10:56;;;;;;;1.60;1.50;;;;;;;;;;5047748;28;20101;-60
2020/12/27 12:13:22;;;;;;;1.50;1.40;;;;;;;;;;5050291;28;20033;-59
2020/12/27 12:15:48;;;;;;;2.80;1.48;;;;;;;;;;5053115;28;20049;-60
2020/12/27 12:18:14;;;;;;;1.83;1.58;;;;;;;;;;5050160;28;20040;-59
2020/12/27 12:20:45;;;;;;;3.08;1.70;;;;;;;;;;5050265;28;20122;-58
2020/12/27 12:23:11;;;;;;;2.78;1.70;;;;;;;;;;5051797;28;20044;-58
2020/12/27 12:25:39;;;;;;;4.72;1.77;;;;;;;;;;5041992;28;20045;-58
2020/12/27 12:28:05;;;;;;;2.53;1.85;;;;;;;;;;5053500;28;20468;-59
2020/12/27 12:30:32;;;;;;;7.00;2.00;;;;;;;;;;5051251;28;20037;-58
2020/12/27 12:32:58;;;;;;;2.65;1.85;;;;;;;;;;5054529;28;20226;-58
2020/12/27 12:35:24;;;;;;;1.98;1.75;;;;;;;;;;5054725;28;20437;-59
2020/12/27 12:37:50;;;;;;;2.33;1.92;;;;;;;;;;5055935;28;20048;-58
2020/12/27 12:40:16;;;;;;;2.25;2.00;;;;;;;;;;5053147;28;20068;-59
2020/12/27 12:42:42;;;;;;;2.35;2.08;;;;;;;;;;5060418;28;20424;-58
2020/12/27 12:45:08;;;;;;;3.95;2.40;;;;;;;;;;5065188;28;20120;-59
2020/12/27 12:47:34;;;;;;;4.13;2.28;;;;;;;;;;5059046;28;20447;-59
2020/12/27 12:50:01;;;;;;;2.25;2.05;;;;;;;;;;5060897;28;20040;-58
2020/12/27 12:52:27;;;;;;;2.85;1.80;;;;;;;;;;5058292;28;20048;-59
2020/12/27 12:54:53;;;;;;;2.80;2.58;;;;;;;;;;5061536;28;20499;-59
2020/12/27 12:57:19;;;;;;;2.80;2.00;;;;;;;;;;5057764;28;20125;-58
2020/12/27 12:59:45;;;;;;;6.53;2.40;;;;;;;;;;5061747;28;20045;-60
2020/12/27 13:02:11;;;;;;;2.72;2.10;;;;;;;;;;5044534;28;20036;-60
2020/12/27 13:04:37;;;;;;;4.07;2.05;;;;;;;;;;5061867;28;20531;-61
2020/12/27 13:07:03;;;;;;;4.03;2.00;;;;;;;;;;5044838;28;20052;-60
2020/12/27 13:09:30;;;;;;;4.50;2.13;;;;;;;;;;5041218;28;20036;-59
2020/12/27 13:11:57;;;;;;;4.20;2.20;;;;;;;;;;5056069;28;20527;-59
2020/12/27 13:14:23;;;;;;;4.63;2.13;;;;;;;;;;5046368;28;20040;-59
2020/12/27 13:16:49;;;;;;;2.25;1.95;;;;;;;;;;5045816;28;20039;-59
2020/12/27 13:19:15;;;;;;;3.15;2.20;;;;;;;;;;5046480;28;20043;-59
2020/12/27 13:21:41;;;;;;;3.22;2.35;;;;;;;;;;5044689;28;20032;-59
2020/12/27 13:24:07;;;;;;;3.67;1.77;;;;;;;;;;5059983;28;20047;-59
2020/12/27 13:26:33;;;;;;;2.55;1.92;;;;;;;;;;5055658;28;20451;-59
2020/12/27 13:29:01;;;;;;;2.17;1.80;;;;;;;;;;5051735;28;20539;-59
2020/12/27 13:31:27;;;;;;;3.85;2.25;;;;;;;;;;5051917;28;20036;-59
2020/12/27 13:33:53;;;;;;;2.10;1.90;;;;;;;;;;5050088;28;20078;-59
2020/12/27 13:36:19;;;;;;;2.72;1.80;;;;;;;;;;5051267;28;20039;-59
2020/12/27 13:38:45;;;;;;;2.47;1.90;;;;;;;;;;5051822;28;20063;-60
2020/12/27 13:41:11;;;;;;;2.10;1.90;;;;;;;;;;5055255;28;20040;-59
2020/12/27 13:43:37;;;;;;;2.90;1.90;;;;;;;;;;5054445;28;20937;-59
2020/12/27 13:46:04;;;;;;;2.88;1.83;;;;;;;;;;5051555;28;20034;-60
2020/12/27 13:48:30;;;;;;;4.10;2.78;;;;;;;;;;5056064;28;20095;-59
2020/12/27 13:50:56;;;;;;;3.67;2.20;;;;;;;;;;5033161;28;20440;-59
2020/12/27 13:53:22;;;;;;;2.00;1.80;;;;;;;;;;5052765;28;20040;-59
2020/12/27 13:55:48;;;;;;;4.25;2.63;;;;;;;;;;5037206;28;20086;-59
2020/12/27 13:58:14;;;;;;;2.58;1.85;;;;;;;;;;5053270;28;20024;-59
2020/12/27 14:00:40;;;;;;;2.72;1.83;;;;;;;;;;5050509;28;20170;-60
2020/12/27 14:03:06;;;;;;;3.65;2.67;;;;;;;;;;5052503;28;20177;-59
2020/12/27 14:05:32;;;;;;;2.60;1.90;;;;;;;;;;5055463;28;20048;-59
2020/12/27 14:07:58;;;;;;;3.15;2.50;;;;;;;;;;5053026;28;20048;-59
2020/12/27 14:10:24;;;;;;;3.28;2.85;;;;;;;;;;5057215;28;20036;-59
2020/12/27 14:12:50;;;;;;;3.85;3.10;;;;;;;;;;5057572;28;20115;-59
2020/12/27 14:15:16;;;;;;;6.38;3.47;;;;;;;;;;5057703;28;20037;-59
2020/12/27 14:17:42;;;;;;;3.97;3.13;;;;;;;;;;5056353;28;20039;-59
2020/12/27 14:20:08;;;;;;;4.05;3.35;;;;;;;;;;5058988;28;20572;-59
2020/12/27 14:22:34;;;;;;;7.88;3.30;;;;;;;;;;5057752;28;20067;-59
2020/12/27 14:25:00;;;;;;;2.75;2.55;;;;;;;;;;5057260;28;20036;-59
2020/12/27 14:27:26;;;;;;;3.97;2.80;;;;;;;;;;5059320;28;20378;-59
2020/12/27 14:29:52;;;;;;;3.95;2.95;;;;;;;;;;5058524;28;20094;-59